ZRH weather

Zürich Airport
Zurich, Canton of Zurich, Switzerland

Public forecast

Using degrees Celsius for public forecast. Weather courtesy of forecast.io.

Current aviation weather report (METAR) for Zürich Airport

Retrieved 2019/10/23 01:20 UTC (5 minutes ago):

LSZH 230120Z VRB03KT 4000 BR BKN009 12/11 Q1018 NOSIG

Aviation forecast (TAF) for Zürich Airport

Retrieved 2019-10-23 03:37 UTC (0 seconds ago):

TAF LSZH 230225Z 2303/2409 VRB03KT 4000 BR BKN009 TX15/2314Z TN10/2323Z TN09/2404Z BECMG 2307/2309 6000 BKN012 BECMG 2309/2311 04007KT 6000 BKN016 BECMG 2317/2319 VRB03KT BECMG 2321/2324 3000 BR BKN010 PROB40 2400/2406 1500 PRFG BKN003 BECMG 2405/2408 9999 BKN050